Hlavní strana
METAR-TAF:

METAR-TAF

Letiště :

Ropná věž

Norne Fpso, Norsko

zeměpisná šířka: 66-01-48N, zeměpisná délka: 008-04-48E, výška: 10 m

Aktuální stav počasí

Zpráva byla vytvořena před 37 minutami, v 02:50 UTC
Jižní vítr 17 kt
Teplota 13°C
Vlhkost vzduchu 94%
Tlak 1001 hPa
Viditelnost 10 km a více

METAR: ENNE 200250Z AUTO 18017KT 9999NDV SCT013/// BKN074/// 13/12 Q1001 W///S3

Čas: 05:27 (03:27 UTC)

Předpověď počasí

Zpráva byla vytvořena před 16 hodinami a 27 minutami, v 11:00 UTC
Předpověď platná od 19 v 12 UTC do 19 v 17 UTC
Východoseverovýchodní vítr 15 kt
Viditelnost 10 km a více
Oblačno až skoro zataženo ve výšce 800 ft
Pravděpodobnost 30%
od 19 v 12 UTC do 19 v 17 UTC
Polojasno ve výšce 800 ft

TAF: ENNE 191100Z 1912/1917 06015KT 9999 BKN008 PROB30 1912/1917 SCT008

Stav a předpovědi počasí z více než 4 000 letišť (zprávy METAR a TAF).

Červené a žluté tečky na mapě představují dostupné meteorologické stanice.

Když kurzor umístíte na tečku, zobrazí se název stanice.

Pak kliknutím zobrazíte stav a předpověď počasí.

Chcete-li změnit mapu, kliknutím na zelené tlačítko se znaménkem +mapu přiblížíte, kliknutím na zelené tlačítko se znaménkem – mapu oddálíte a kliknutím na zelené šipky přejdete na sousední mapy.


METAR-TAF: